Time;durP1;ratioP1;P1;durP2;ratioP2;P2;SDS_P1;SDS_P2;PMS_P1;PMS_P2;Temp;Humidity;BMP_temperature;BMP_pressure;BME280_temperature;BME280_humidity;BME280_pressure;Samples;Min_cycle;Max_cycle;Signal;HPM_P1;HPM_P2
2022/03/17 00:02:17;;;;;;;89.32;27.25;;;;;;;;;;5026174;28;20157;-76
2022/03/17 00:04:45;;;;;;;97.47;28.80;;;;;;;;;;5014532;28;20562;-76
2022/03/17 00:07:12;;;;;;;98.93;30.10;;;;;;;;;;5033745;28;20546;-76
2022/03/17 00:09:40;;;;;;;88.97;29.80;;;;;;;;;;5028574;28;20053;-77
2022/03/17 00:12:08;;;;;;;94.70;28.05;;;;;;;;;;5027249;28;20053;-76
2022/03/17 00:14:36;;;;;;;96.93;29.08;;;;;;;;;;5045128;28;20100;-77
2022/03/17 00:17:04;;;;;;;86.75;27.67;;;;;;;;;;5017100;28;20061;-76
2022/03/17 00:19:31;;;;;;;82.22;28.30;;;;;;;;;;5022817;28;20081;-76
2022/03/17 00:21:59;;;;;;;92.13;28.52;;;;;;;;;;5017723;28;20084;-76
2022/03/17 00:24:26;;;;;;;93.78;28.33;;;;;;;;;;5007862;28;20046;-76
2022/03/17 00:26:54;;;;;;;78.45;25.50;;;;;;;;;;5025990;28;20556;-77
2022/03/17 00:29:21;;;;;;;81.55;26.05;;;;;;;;;;5027155;28;20079;-77
2022/03/17 00:31:48;;;;;;;85.32;26.35;;;;;;;;;;5032733;28;20132;-76
2022/03/17 00:34:15;;;;;;;85.65;25.30;;;;;;;;;;5028948;28;20434;-77
2022/03/17 00:36:42;;;;;;;82.40;26.08;;;;;;;;;;5027522;28;20739;-77
2022/03/17 00:39:10;;;;;;;78.85;25.10;;;;;;;;;;5049715;28;20513;-76
2022/03/17 00:41:37;;;;;;;70.65;24.48;;;;;;;;;;5027618;28;20053;-77
2022/03/17 00:44:04;;;;;;;76.88;27.58;;;;;;;;;;5028655;28;20108;-76
2022/03/17 00:46:31;;;;;;;77.97;27.15;;;;;;;;;;5029673;28;20180;-77
2022/03/17 00:48:58;;;;;;;72.63;26.45;;;;;;;;;;5064934;28;20490;-77
2022/03/17 00:51:26;;;;;;;74.82;26.30;;;;;;;;;;5031332;28;20077;-77
2022/03/17 00:53:53;;;;;;;78.10;26.45;;;;;;;;;;5027055;28;20092;-77
2022/03/17 00:56:21;;;;;;;84.35;27.40;;;;;;;;;;5027780;28;20158;-77
2022/03/17 00:58:48;;;;;;;84.75;27.63;;;;;;;;;;5025669;28;20081;-76
2022/03/17 01:01:17;;;;;;;84.65;28.27;;;;;;;;;;5025339;28;20050;-76
2022/03/17 01:03:45;;;;;;;79.38;27.55;;;;;;;;;;5052056;28;20462;-77
2022/03/17 01:06:12;;;;;;;82.75;28.55;;;;;;;;;;5046859;28;20530;-77
2022/03/17 01:08:40;;;;;;;86.70;27.85;;;;;;;;;;5008933;28;20581;-77
2022/03/17 01:11:07;;;;;;;80.53;27.95;;;;;;;;;;5025111;28;20105;-77
2022/03/17 01:13:34;;;;;;;83.07;28.85;;;;;;;;;;5028485;28;20053;-77
2022/03/17 01:16:01;;;;;;;82.45;28.73;;;;;;;;;;5025638;28;20512;-76
2022/03/17 01:18:28;;;;;;;84.30;26.92;;;;;;;;;;5025107;28;20060;-77
2022/03/17 01:20:57;;;;;;;86.68;30.00;;;;;;;;;;5028561;28;20053;-77
2022/03/17 01:23:25;;;;;;;88.55;29.23;;;;;;;;;;5058955;28;20446;-77
2022/03/17 01:25:52;;;;;;;85.72;29.65;;;;;;;;;;5027794;28;20061;-76
2022/03/17 01:28:19;;;;;;;87.55;29.10;;;;;;;;;;5028058;28;20050;-76
2022/03/17 01:30:47;;;;;;;92.32;31.30;;;;;;;;;;5028154;28;20133;-76
2022/03/17 01:33:14;;;;;;;93.65;32.40;;;;;;;;;;5028217;28;20050;-77
2022/03/17 01:35:41;;;;;;;89.93;29.85;;;;;;;;;;5026190;28;20103;-77
2022/03/17 01:38:08;;;;;;;92.07;31.50;;;;;;;;;;5028217;28;20053;-77
2022/03/17 01:40:36;;;;;;;99.65;30.35;;;;;;;;;;5026890;28;20084;-77
2022/03/17 01:43:03;;;;;;;98.15;32.08;;;;;;;;;;5063267;28;20549;-76
2022/03/17 01:45:30;;;;;;;95.47;32.42;;;;;;;;;;5033763;28;20077;-76
2022/03/17 01:47:58;;;;;;;101.10;34.55;;;;;;;;;;5031122;28;20756;-76
2022/03/17 01:50:25;;;;;;;94.10;32.85;;;;;;;;;;5061926;28;20101;-77
2022/03/17 01:52:52;;;;;;;96.55;33.92;;;;;;;;;;5030206;28;20054;-77
2022/03/17 01:55:20;;;;;;;105.35;33.30;;;;;;;;;;5039895;28;20186;-77
2022/03/17 01:57:48;;;;;;;95.82;34.22;;;;;;;;;;5028548;28;20623;-77
2022/03/17 02:00:17;;;;;;;101.93;34.45;;;;;;;;;;5017910;28;20061;-77
2022/03/17 02:02:45;;;;;;;102.13;34.22;;;;;;;;;;5017604;28;20506;-77
2022/03/17 02:05:13;;;;;;;111.70;35.55;;;;;;;;;;5027567;28;20049;-77
2022/03/17 02:07:43;;;;;;;103.22;34.20;;;;;;;;;;5027311;28;20486;-77
2022/03/17 02:10:10;;;;;;;106.50;33.38;;;;;;;;;;5027348;28;20053;-77
2022/03/17 02:15:26;;;;;;;108.25;35.53;;;;;;;;;;5031391;28;20085;-76
2022/03/17 02:17:54;;;;;;;115.47;37.85;;;;;;;;;;5030691;28;20089;-77
2022/03/17 02:20:24;;;;;;;108.05;36.88;;;;;;;;;;5035080;28;20869;-76
2022/03/17 02:22:52;;;;;;;101.63;36.92;;;;;;;;;;5014050;28;20161;-77
2022/03/17 02:25:35;;;;;;;99.90;36.90;;;;;;;;;;5019926;28;20125;-77
2022/03/17 02:28:04;;;;;;;117.90;37.92;;;;;;;;;;5056515;28;20080;-77
2022/03/17 02:30:34;;;;;;;106.55;36.67;;;;;;;;;;5029582;28;20088;-77
2022/03/17 02:33:03;;;;;;;117.72;38.78;;;;;;;;;;5011309;28;20053;-76
2022/03/17 02:35:32;;;;;;;124.15;38.35;;;;;;;;;;5019213;28;20132;-76
2022/03/17 02:38:01;;;;;;;107.05;38.75;;;;;;;;;;5020644;28;20049;-77
2022/03/17 02:40:29;;;;;;;113.13;39.88;;;;;;;;;;5029452;28;20049;-77
2022/03/17 02:42:57;;;;;;;113.72;39.30;;;;;;;;;;5026656;28;20827;-77
2022/03/17 02:45:24;;;;;;;116.90;37.90;;;;;;;;;;5017514;28;20398;-77
2022/03/17 02:47:52;;;;;;;124.78;39.20;;;;;;;;;;5038706;28;20053;-77
2022/03/17 02:50:19;;;;;;;120.80;41.25;;;;;;;;;;5029159;28;20042;-76
2022/03/17 02:52:47;;;;;;;135.25;41.22;;;;;;;;;;5013215;28;20041;-76
2022/03/17 02:55:15;;;;;;;126.15;39.72;;;;;;;;;;5014731;28;20506;-77
2022/03/17 02:57:44;;;;;;;126.53;41.38;;;;;;;;;;5026084;28;20099;-76
2022/03/17 03:00:12;;;;;;;129.27;43.38;;;;;;;;;;5027854;28;20119;-76
2022/03/17 03:02:40;;;;;;;121.00;40.25;;;;;;;;;;5024328;28;20124;-76
2022/03/17 03:05:08;;;;;;;117.38;39.45;;;;;;;;;;5022415;28;20053;-76
2022/03/17 03:07:36;;;;;;;129.10;41.05;;;;;;;;;;5026545;28;20109;-76
2022/03/17 03:10:03;;;;;;;122.85;42.42;;;;;;;;;;5025920;28;20053;-76
2022/03/17 03:12:31;;;;;;;122.32;42.25;;;;;;;;;;5018534;28;20156;-76
2022/03/17 03:14:58;;;;;;;120.35;41.60;;;;;;;;;;5015920;28;20104;-76
2022/03/17 03:17:28;;;;;;;120.90;41.22;;;;;;;;;;5016327;28;20089;-76
2022/03/17 03:19:55;;;;;;;127.82;41.50;;;;;;;;;;5031889;28;20045;-76
2022/03/17 03:22:23;;;;;;;138.85;44.03;;;;;;;;;;5025855;28;20104;-76
2022/03/17 03:24:50;;;;;;;118.40;39.67;;;;;;;;;;5027674;28;20128;-76
2022/03/17 03:27:17;;;;;;;134.38;44.13;;;;;;;;;;5025172;28;20081;-76
2022/03/17 03:29:44;;;;;;;134.55;43.35;;;;;;;;;;5027406;28;20053;-76
2022/03/17 03:32:11;;;;;;;131.85;44.63;;;;;;;;;;5016389;28;20081;-76
2022/03/17 03:34:38;;;;;;;120.32;41.30;;;;;;;;;;5009413;28;20123;-76
2022/03/17 03:37:25;;;;;;;129.25;42.78;;;;;;;;;;5026759;28;20081;-76
2022/03/17 03:39:54;;;;;;;129.82;43.20;;;;;;;;;;5059224;28;20107;-76
2022/03/17 03:42:21;;;;;;;128.23;41.92;;;;;;;;;;5016137;28;20906;-76
2022/03/17 03:44:48;;;;;;;128.40;41.35;;;;;;;;;;5015233;28;20141;-76
2022/03/17 03:47:16;;;;;;;136.07;43.78;;;;;;;;;;5017972;28;20164;-76
2022/03/17 03:49:43;;;;;;;138.93;44.65;;;;;;;;;;5037474;28;20084;-76
2022/03/17 03:52:11;;;;;;;129.70;43.15;;;;;;;;;;5023829;28;20132;-76
2022/03/17 03:54:39;;;;;;;126.85;43.10;;;;;;;;;;5010077;28;20139;-76
2022/03/17 03:57:07;;;;;;;137.40;45.17;;;;;;;;;;5026532;28;20088;-76
2022/03/17 03:59:35;;;;;;;140.70;45.75;;;;;;;;;;5027384;28;20084;-76
2022/03/17 04:02:06;;;;;;;141.05;48.08;;;;;;;;;;5024915;28;20608;-76
2022/03/17 04:04:34;;;;;;;144.18;46.45;;;;;;;;;;5027736;28;20049;-76
2022/03/17 04:07:03;;;;;;;147.15;45.90;;;;;;;;;;5015140;28;20419;-77
2022/03/17 04:09:34;;;;;;;134.93;45.90;;;;;;;;;;5011310;28;20522;-76
2022/03/17 04:12:01;;;;;;;147.98;47.38;;;;;;;;;;5033490;28;20061;-76
2022/03/17 04:14:30;;;;;;;142.32;46.97;;;;;;;;;;5026284;28;20137;-76
2022/03/17 04:16:57;;;;;;;142.88;47.45;;;;;;;;;;5011952;28;20084;-76
2022/03/17 04:19:25;;;;;;;142.18;46.85;;;;;;;;;;5037665;28;20505;-76
2022/03/17 04:21:52;;;;;;;139.32;45.85;;;;;;;;;;5030981;28;20144;-77
2022/03/17 04:24:20;;;;;;;137.90;45.70;;;;;;;;;;5028092;28;22022;-76
2022/03/17 04:26:47;;;;;;;141.25;47.80;;;;;;;;;;5023733;28;20081;-76
2022/03/17 04:29:15;;;;;;;147.50;46.90;;;;;;;;;;5027893;28;20120;-76
2022/03/17 04:31:42;;;;;;;136.15;47.17;;;;;;;;;;5039022;28;20073;-76
2022/03/17 04:34:10;;;;;;;142.63;47.08;;;;;;;;;;5027290;28;20073;-75
2022/03/17 04:36:37;;;;;;;146.95;47.72;;;;;;;;;;5022214;28;20140;-76
2022/03/17 04:39:06;;;;;;;149.48;48.28;;;;;;;;;;5006501;28;20129;-76
2022/03/17 04:41:33;;;;;;;143.73;47.47;;;;;;;;;;5018882;28;20123;-76
2022/03/17 04:44:00;;;;;;;148.38;48.83;;;;;;;;;;5026242;28;20081;-76
2022/03/17 04:46:27;;;;;;;134.45;48.03;;;;;;;;;;5024819;28;20125;-77
2022/03/17 04:48:54;;;;;;;139.35;48.33;;;;;;;;;;5018300;28;20494;-76
2022/03/17 04:51:21;;;;;;;145.95;48.90;;;;;;;;;;5009965;28;20050;-76
2022/03/17 04:53:49;;;;;;;137.82;49.28;;;;;;;;;;5019247;28;20088;-76
2022/03/17 04:56:20;;;;;;;145.40;48.95;;;;;;;;;;5022907;28;20207;-77
2022/03/17 04:58:50;;;;;;;145.88;46.70;;;;;;;;;;5023477;28;20107;-77
2022/03/17 05:01:18;;;;;;;144.60;48.63;;;;;;;;;;5024432;28;20041;-76
2022/03/17 05:03:45;;;;;;;141.98;50.33;;;;;;;;;;5052354;28;20061;-76
2022/03/17 05:06:14;;;;;;;152.02;50.05;;;;;;;;;;5031189;28;20055;-78
2022/03/17 05:08:41;;;;;;;147.57;49.92;;;;;;;;;;5028257;28;20053;-77
2022/03/17 05:11:09;;;;;;;137.32;48.55;;;;;;;;;;5048000;28;20118;-77
2022/03/17 05:13:38;;;;;;;130.43;47.55;;;;;;;;;;5057325;28;20045;-77
2022/03/17 05:16:06;;;;;;;145.23;48.83;;;;;;;;;;5028033;28;20108;-76
2022/03/17 05:18:34;;;;;;;151.52;51.15;;;;;;;;;;5030229;28;20053;-76
2022/03/17 05:21:01;;;;;;;136.35;48.70;;;;;;;;;;5032876;28;20076;-76
2022/03/17 05:23:30;;;;;;;143.48;51.00;;;;;;;;;;5022657;28;20053;-76
2022/03/17 05:25:58;;;;;;;151.80;50.97;;;;;;;;;;5037799;28;20124;-76
2022/03/17 05:28:25;;;;;;;149.18;52.58;;;;;;;;;;5035771;28;20037;-76
2022/03/17 05:30:52;;;;;;;152.57;51.78;;;;;;;;;;5031930;28;20422;-76
2022/03/17 05:33:21;;;;;;;137.35;51.13;;;;;;;;;;5023966;28;20042;-76
2022/03/17 05:35:48;;;;;;;137.75;51.05;;;;;;;;;;5033733;28;20128;-76
2022/03/17 05:38:15;;;;;;;134.30;50.88;;;;;;;;;;5048978;28;20084;-76
2022/03/17 05:40:43;;;;;;;152.15;53.78;;;;;;;;;;5044368;28;20081;-76
2022/03/17 05:43:11;;;;;;;140.82;51.75;;;;;;;;;;5026437;28;20073;-76
2022/03/17 05:45:39;;;;;;;143.10;52.63;;;;;;;;;;5030016;28;20081;-76
2022/03/17 05:48:07;;;;;;;132.02;48.00;;;;;;;;;;5014366;28;20061;-77
2022/03/17 05:50:37;;;;;;;138.40;48.03;;;;;;;;;;5042816;28;20111;-77
2022/03/17 05:53:05;;;;;;;137.98;52.25;;;;;;;;;;5027315;28;20053;-77
2022/03/17 05:55:33;;;;;;;136.77;50.00;;;;;;;;;;5028880;28;20125;-77
2022/03/17 05:58:00;;;;;;;138.38;49.28;;;;;;;;;;5031170;28;20080;-77
2022/03/17 06:00:28;;;;;;;126.72;49.92;;;;;;;;;;5051538;28;20088;-76
2022/03/17 06:02:57;;;;;;;138.63;51.60;;;;;;;;;;5015770;28;20147;-76
2022/03/17 06:05:25;;;;;;;143.15;50.92;;;;;;;;;;5016360;28;20049;-77
2022/03/17 06:07:54;;;;;;;134.73;48.75;;;;;;;;;;5028890;28;20049;-78
2022/03/17 06:10:23;;;;;;;132.88;47.90;;;;;;;;;;5011734;28;20050;-75
2022/03/17 06:12:51;;;;;;;127.20;48.33;;;;;;;;;;5015681;28;20121;-77
2022/03/17 06:15:19;;;;;;;135.40;51.85;;;;;;;;;;5013479;28;20495;-76
2022/03/17 06:17:48;;;;;;;125.93;49.28;;;;;;;;;;5028216;28;20096;-79
2022/03/17 06:20:17;;;;;;;131.10;50.63;;;;;;;;;;5046640;28;20052;-76
2022/03/17 06:22:51;;;;;;;132.45;49.45;;;;;;;;;;5014357;28;20053;-75
2022/03/17 06:25:19;;;;;;;131.13;48.53;;;;;;;;;;5011758;28;20105;-81
2022/03/17 06:27:47;;;;;;;120.78;46.08;;;;;;;;;;5030569;28;20137;-78
2022/03/17 06:30:18;;;;;;;115.80;47.67;;;;;;;;;;5024153;28;20084;-85
2022/03/17 06:32:45;;;;;;;123.63;47.95;;;;;;;;;;5031470;28;20514;-79
2022/03/17 06:35:17;;;;;;;124.00;49.08;;;;;;;;;;5033151;28;20085;-79
2022/03/17 06:37:48;;;;;;;113.32;45.47;;;;;;;;;;5027828;28;20427;-77
2022/03/17 06:40:16;;;;;;;115.28;47.15;;;;;;;;;;5024519;28;20140;-77
2022/03/17 06:42:44;;;;;;;119.22;47.72;;;;;;;;;;5025641;28;20053;-75
2022/03/17 06:45:12;;;;;;;121.65;47.63;;;;;;;;;;5061209;28;20132;-77
2022/03/17 06:47:39;;;;;;;120.90;47.17;;;;;;;;;;5060463;28;20643;-75
2022/03/17 06:50:07;;;;;;;120.88;49.03;;;;;;;;;;5053321;28;20099;-78
2022/03/17 06:52:35;;;;;;;114.70;45.45;;;;;;;;;;5048945;28;20045;-79
2022/03/17 06:55:02;;;;;;;109.68;44.78;;;;;;;;;;5039429;28;20521;-79
2022/03/17 06:57:30;;;;;;;115.68;47.47;;;;;;;;;;5046788;28;20455;-79
2022/03/17 06:59:57;;;;;;;113.68;47.38;;;;;;;;;;5037830;28;20521;-78
2022/03/17 07:02:24;;;;;;;106.97;45.35;;;;;;;;;;5040871;28;20072;-79
2022/03/17 07:04:51;;;;;;;108.85;47.33;;;;;;;;;;5040442;28;20053;-79
2022/03/17 07:07:19;;;;;;;107.30;44.63;;;;;;;;;;5039694;28;20069;-79
2022/03/17 07:09:46;;;;;;;104.53;45.60;;;;;;;;;;5040154;28;20061;-78
2022/03/17 07:12:13;;;;;;;112.15;45.88;;;;;;;;;;5042237;28;20072;-78
2022/03/17 07:14:40;;;;;;;111.72;46.10;;;;;;;;;;5043046;28;20076;-79
2022/03/17 07:17:07;;;;;;;104.15;45.17;;;;;;;;;;5042147;28;20557;-78
2022/03/17 07:19:35;;;;;;;109.78;46.08;;;;;;;;;;5038165;28;20053;-78
2022/03/17 07:22:03;;;;;;;108.22;47.88;;;;;;;;;;5037954;28;20111;-77
2022/03/17 07:24:30;;;;;;;105.93;45.55;;;;;;;;;;5040263;28;20061;-77
2022/03/17 07:27:01;;;;;;;102.63;46.03;;;;;;;;;;5042949;28;20137;-78
2022/03/17 07:29:28;;;;;;;101.97;47.92;;;;;;;;;;5037288;28;20128;-79
2022/03/17 07:31:56;;;;;;;105.00;46.58;;;;;;;;;;5033676;28;20068;-79
2022/03/17 07:34:24;;;;;;;109.05;45.13;;;;;;;;;;5032882;28;20489;-79
2022/03/17 07:36:52;;;;;;;103.88;45.75;;;;;;;;;;5055212;28;20084;-78
2022/03/17 07:39:19;;;;;;;100.85;47.35;;;;;;;;;;5037672;28;20137;-79
2022/03/17 07:41:46;;;;;;;97.38;45.35;;;;;;;;;;5060361;28;20076;-79
2022/03/17 07:44:14;;;;;;;100.25;46.10;;;;;;;;;;5040456;28;20092;-79
2022/03/17 07:46:42;;;;;;;104.97;46.45;;;;;;;;;;5039477;28;20065;-78
2022/03/17 07:49:09;;;;;;;101.35;46.75;;;;;;;;;;5038726;28;20065;-78
2022/03/17 07:51:37;;;;;;;99.13;45.17;;;;;;;;;;5038853;28;20630;-78
2022/03/17 07:54:04;;;;;;;97.80;45.70;;;;;;;;;;5036112;28;20453;-80
2022/03/17 07:56:31;;;;;;;100.82;46.08;;;;;;;;;;5041749;28;20085;-79
2022/03/17 07:58:59;;;;;;;105.18;47.67;;;;;;;;;;5039367;28;20104;-80
2022/03/17 08:01:26;;;;;;;109.80;49.28;;;;;;;;;;5038967;28;20190;-79
2022/03/17 08:03:54;;;;;;;101.95;45.63;;;;;;;;;;5043113;28;20053;-80
2022/03/17 08:06:25;;;;;;;99.60;46.15;;;;;;;;;;5037023;28;20049;-79
2022/03/17 08:08:53;;;;;;;99.78;46.40;;;;;;;;;;5042339;28;20072;-80
2022/03/17 08:11:23;;;;;;;108.80;47.05;;;;;;;;;;5040486;28;20140;-80
2022/03/17 08:13:51;;;;;;;101.10;47.35;;;;;;;;;;5037115;28;20037;-79
2022/03/17 08:16:18;;;;;;;101.80;46.05;;;;;;;;;;5038017;28;20115;-79
2022/03/17 08:18:45;;;;;;;113.43;46.63;;;;;;;;;;5039120;28;20057;-80
2022/03/17 08:21:13;;;;;;;106.43;47.50;;;;;;;;;;5039657;28;20049;-79
2022/03/17 08:23:40;;;;;;;103.85;47.67;;;;;;;;;;5038422;28;20091;-80
2022/03/17 08:26:07;;;;;;;102.68;46.97;;;;;;;;;;5034946;28;20131;-80
2022/03/17 08:28:35;;;;;;;102.78;46.45;;;;;;;;;;5043737;28;20049;-79
2022/03/17 08:31:02;;;;;;;91.47;42.40;;;;;;;;;;5039966;28;20808;-80
2022/03/17 08:33:29;;;;;;;95.97;45.78;;;;;;;;;;5040224;28;20063;-80
2022/03/17 08:35:57;;;;;;;99.00;46.20;;;;;;;;;;5040124;28;20091;-80
2022/03/17 08:38:24;;;;;;;102.43;46.35;;;;;;;;;;5035430;28;20068;-79
2022/03/17 08:40:51;;;;;;;93.18;45.25;;;;;;;;;;5036785;28;20224;-80
2022/03/17 08:43:18;;;;;;;93.35;45.28;;;;;;;;;;5041666;28;20184;-80
2022/03/17 08:51:17;;;;;;;100.15;44.53;;;;;;;;;;5042034;28;20068;-80
2022/03/17 08:53:44;;;;;;;94.90;42.97;;;;;;;;;;5030779;28;20080;-81
2022/03/17 08:56:12;;;;;;;96.22;45.70;;;;;;;;;;5044245;28;20510;-80
2022/03/17 08:58:39;;;;;;;94.20;43.65;;;;;;;;;;5037860;28;20065;-78
2022/03/17 09:01:07;;;;;;;99.15;44.70;;;;;;;;;;5035549;28;20052;-77
2022/03/17 09:03:34;;;;;;;96.38;44.85;;;;;;;;;;5036945;28;20159;-79
2022/03/17 09:06:01;;;;;;;103.30;44.58;;;;;;;;;;5027496;28;20077;-77
2022/03/17 09:08:29;;;;;;;92.22;44.72;;;;;;;;;;5028104;28;20081;-76
2022/03/17 09:10:57;;;;;;;103.63;44.58;;;;;;;;;;5031171;28;20807;-76
2022/03/17 09:13:29;;;;;;;101.20;45.05;;;;;;;;;;5029090;28;20072;-76
2022/03/17 09:15:56;;;;;;;115.63;44.85;;;;;;;;;;5028163;28;20713;-77
2022/03/17 09:18:24;;;;;;;105.85;46.95;;;;;;;;;;5028108;28;20096;-76
2022/03/17 09:20:51;;;;;;;93.45;45.70;;;;;;;;;;5030029;28;20048;-76
2022/03/17 09:23:18;;;;;;;99.05;45.67;;;;;;;;;;5030881;28;20060;-77
2022/03/17 09:25:45;;;;;;;91.50;44.90;;;;;;;;;;5038210;28;20080;-77
2022/03/17 09:28:14;;;;;;;94.45;45.53;;;;;;;;;;5039524;28;20398;-76
2022/03/17 09:30:42;;;;;;;89.38;43.78;;;;;;;;;;5034119;28;20054;-76
2022/03/17 09:33:09;;;;;;;94.15;44.25;;;;;;;;;;5035835;28;20046;-76
2022/03/17 09:35:37;;;;;;;96.63;44.75;;;;;;;;;;5034717;28;20061;-76
2022/03/17 09:38:05;;;;;;;93.90;44.97;;;;;;;;;;5026284;28;20053;-76
2022/03/17 09:40:34;;;;;;;86.15;43.80;;;;;;;;;;5032683;28;20115;-76
2022/03/17 09:43:28;;;;;;;100.85;45.42;;;;;;;;;;5036582;28;20587;-76
2022/03/17 09:45:51;;;;;;;86.65;42.47;;;;;;;;;;5028875;28;20153;-76
2022/03/17 09:48:21;;;;;;;110.05;46.03;;;;;;;;;;5030127;28;20059;-76
2022/03/17 09:50:48;;;;;;;96.88;44.78;;;;;;;;;;5030691;28;20562;-76
2022/03/17 09:53:15;;;;;;;96.63;44.25;;;;;;;;;;5031059;28;20560;-76
2022/03/17 09:55:43;;;;;;;86.82;41.58;;;;;;;;;;5030863;28;20264;-76
2022/03/17 09:58:11;;;;;;;85.78;42.58;;;;;;;;;;5029667;28;20049;-76
2022/03/17 10:00:47;;;;;;;91.65;44.80;;;;;;;;;;5031768;28;20053;-76
2022/03/17 10:03:15;;;;;;;87.75;43.47;;;;;;;;;;5029151;28;20049;-76
2022/03/17 10:05:44;;;;;;;90.78;45.28;;;;;;;;;;5040380;28;20409;-77
2022/03/17 10:08:12;;;;;;;83.63;42.95;;;;;;;;;;5035224;28;20606;-78
2022/03/17 10:10:40;;;;;;;92.35;44.38;;;;;;;;;;5038693;28;20053;-76
2022/03/17 10:13:11;;;;;;;90.10;44.88;;;;;;;;;;5038411;28;20147;-81
2022/03/17 10:15:38;;;;;;;95.18;47.35;;;;;;;;;;5036786;28;20083;-77
2022/03/17 10:18:18;;;;;;;87.72;44.58;;;;;;;;;;5038862;28;20044;-78
2022/03/17 10:20:46;;;;;;;114.85;43.75;;;;;;;;;;5039692;28;20041;-77
2022/03/17 10:23:13;;;;;;;84.88;44.13;;;;;;;;;;5036569;28;20132;-77
2022/03/17 10:25:40;;;;;;;86.50;44.33;;;;;;;;;;5031929;28;20137;-78
2022/03/17 10:28:14;;;;;;;87.00;42.90;;;;;;;;;;5036886;28;20075;-78
2022/03/17 10:30:41;;;;;;;90.60;44.40;;;;;;;;;;5042159;28;20083;-80
2022/03/17 10:33:18;;;;;;;87.97;42.20;;;;;;;;;;5040707;28;20049;-79
2022/03/17 10:35:48;;;;;;;83.68;43.13;;;;;;;;;;5038463;28;20041;-79
2022/03/17 10:38:15;;;;;;;86.82;42.30;;;;;;;;;;5032109;28;20077;-78
2022/03/17 10:40:43;;;;;;;94.15;43.03;;;;;;;;;;5032243;28;20053;-78
2022/03/17 10:43:14;;;;;;;88.47;42.72;;;;;;;;;;5043412;28;20068;-76
2022/03/17 10:45:42;;;;;;;88.85;42.88;;;;;;;;;;5041473;28;20045;-80
2022/03/17 10:48:09;;;;;;;98.13;45.17;;;;;;;;;;5041947;28;20045;-80
2022/03/17 10:50:41;;;;;;;85.40;43.25;;;;;;;;;;5047617;28;20068;-81
2022/03/17 10:53:08;;;;;;;90.97;44.45;;;;;;;;;;5039698;28;20466;-80
2022/03/17 10:55:35;;;;;;;91.85;44.63;;;;;;;;;;5039729;28;20079;-81
2022/03/17 10:58:16;;;;;;;106.00;44.65;;;;;;;;;;5040361;28;20068;-81
2022/03/17 11:00:50;;;;;;;89.70;43.90;;;;;;;;;;5041178;28;20084;-81
2022/03/17 11:03:18;;;;;;;81.07;42.03;;;;;;;;;;5038552;28;20053;-81
2022/03/17 11:05:51;;;;;;;85.97;43.85;;;;;;;;;;5029101;28;20053;-81
2022/03/17 11:08:19;;;;;;;116.72;43.83;;;;;;;;;;5038403;28;20783;-81
2022/03/17 11:10:47;;;;;;;92.22;40.85;;;;;;;;;;5028359;28;20826;-81
2022/03/17 11:13:14;;;;;;;89.78;42.50;;;;;;;;;;5041300;28;20127;-80
2022/03/17 11:15:45;;;;;;;79.32;39.70;;;;;;;;;;5035646;28;20072;-81
2022/03/17 11:18:17;;;;;;;88.30;42.15;;;;;;;;;;5038106;28;20054;-81
2022/03/17 11:20:44;;;;;;;92.38;43.55;;;;;;;;;;5043451;28;20067;-81
2022/03/17 11:23:19;;;;;;;87.38;41.70;;;;;;;;;;5039567;28;20049;-84
2022/03/17 11:25:56;;;;;;;81.65;41.92;;;;;;;;;;5052388;28;20823;-83
2022/03/17 11:28:34;;;;;;;80.65;41.22;;;;;;;;;;5024633;28;20127;-83
2022/03/17 11:31:03;;;;;;;82.68;39.92;;;;;;;;;;5048723;28;20170;-83
2022/03/17 11:33:36;;;;;;;75.47;39.05;;;;;;;;;;5046294;28;20136;-83
2022/03/17 11:36:09;;;;;;;72.30;39.90;;;;;;;;;;5040266;28;20133;-82
2022/03/17 11:38:37;;;;;;;82.53;41.67;;;;;;;;;;5056118;28;20045;-83
2022/03/17 11:41:09;;;;;;;84.18;40.97;;;;;;;;;;5042653;28;20444;-83
2022/03/17 11:43:40;;;;;;;94.93;41.47;;;;;;;;;;5037214;28;20046;-83
2022/03/17 11:46:17;;;;;;;75.10;40.13;;;;;;;;;;5033281;28;20124;-83
2022/03/17 11:48:45;;;;;;;78.65;40.20;;;;;;;;;;5037495;28;20077;-83
2022/03/17 11:51:13;;;;;;;80.40;42.42;;;;;;;;;;5055180;28;20130;-83
2022/03/17 11:53:47;;;;;;;82.18;41.53;;;;;;;;;;5035470;28;20073;-83
2022/03/17 11:56:31;;;;;;;79.55;40.58;;;;;;;;;;5061610;28;20096;-83
2022/03/17 11:58:58;;;;;;;75.18;40.38;;;;;;;;;;5058063;28;20046;-83
2022/03/17 12:01:28;;;;;;;100.38;42.88;;;;;;;;;;5044060;28;20045;-83
2022/03/17 12:03:56;;;;;;;77.60;39.30;;;;;;;;;;5041509;28;20768;-83
2022/03/17 12:06:26;;;;;;;83.07;42.65;;;;;;;;;;5043887;28;20106;-83
2022/03/17 12:08:58;;;;;;;78.75;42.10;;;;;;;;;;5040495;28;20045;-82
2022/03/17 12:11:26;;;;;;;83.60;42.35;;;;;;;;;;5035131;28;20816;-82
2022/03/17 12:14:19;;;;;;;80.88;41.97;;;;;;;;;;5033963;28;20119;-81
2022/03/17 12:16:48;;;;;;;131.50;44.60;;;;;;;;;;5038844;28;20099;-82
2022/03/17 12:19:34;;;;;;;87.50;42.58;;;;;;;;;;5038220;28;20053;-82
2022/03/17 12:22:02;;;;;;;84.80;42.83;;;;;;;;;;5022184;28;20104;-82
2022/03/17 12:24:51;;;;;;;78.82;41.30;;;;;;;;;;5018319;28;20057;-82
2022/03/17 12:27:19;;;;;;;77.65;41.10;;;;;;;;;;5025423;28;20045;-86
2022/03/17 12:29:47;;;;;;;79.72;42.85;;;;;;;;;;5053808;28;20060;-79
2022/03/17 12:32:15;;;;;;;85.57;42.80;;;;;;;;;;5042497;28;20386;-76
2022/03/17 12:34:44;;;;;;;93.95;44.75;;;;;;;;;;5033802;28;20133;-78
2022/03/17 12:37:12;;;;;;;127.32;44.35;;;;;;;;;;5033155;28;20882;-79
2022/03/17 12:39:40;;;;;;;88.60;42.35;;;;;;;;;;5033246;28;20049;-80
2022/03/17 12:42:15;;;;;;;77.70;42.33;;;;;;;;;;5031325;28;20053;-78
2022/03/17 12:44:53;;;;;;;98.30;42.50;;;;;;;;;;5035806;28;20076;-78
2022/03/17 12:47:21;;;;;;;76.45;40.72;;;;;;;;;;5033879;28;20196;-81
2022/03/17 12:49:48;;;;;;;86.80;42.88;;;;;;;;;;5045714;28;20706;-82
2022/03/17 12:52:21;;;;;;;81.43;41.83;;;;;;;;;;5038103;28;20076;-81
2022/03/17 12:54:54;;;;;;;78.45;39.53;;;;;;;;;;5040523;28;20091;-81
2022/03/17 12:57:23;;;;;;;80.45;40.55;;;;;;;;;;5028326;28;20056;-80
2022/03/17 12:59:50;;;;;;;75.60;39.50;;;;;;;;;;5035956;28;20087;-81
2022/03/17 13:02:20;;;;;;;86.57;42.00;;;;;;;;;;5035815;28;20057;-81
2022/03/17 13:04:55;;;;;;;84.53;41.72;;;;;;;;;;5040348;28;20563;-79
2022/03/17 13:07:24;;;;;;;83.03;41.10;;;;;;;;;;5052763;22;20063;-81
2022/03/17 13:09:52;;;;;;;83.75;42.47;;;;;;;;;;5069216;28;20326;-82
2022/03/17 13:15:11;;;;;;;80.80;40.20;;;;;;;;;;5070681;28;20658;-81
2022/03/17 13:17:41;;;;;;;85.50;41.40;;;;;;;;;;5064928;28;20822;-80
2022/03/17 13:20:23;;;;;;;80.20;41.17;;;;;;;;;;5067459;28;20446;-81
2022/03/17 13:23:00;;;;;;;85.10;41.88;;;;;;;;;;5081953;28;20131;-82
2022/03/17 13:25:28;;;;;;;90.13;42.05;;;;;;;;;;5078397;28;20044;-80
2022/03/17 13:28:00;;;;;;;82.13;42.10;;;;;;;;;;5074684;28;20084;-81
2022/03/17 13:30:27;;;;;;;88.20;42.72;;;;;;;;;;5074378;28;20492;-81
2022/03/17 13:32:59;;;;;;;87.57;41.47;;;;;;;;;;5078385;28;20452;-82
2022/03/17 13:35:26;;;;;;;88.78;43.00;;;;;;;;;;5075619;28;20058;-81
2022/03/17 13:38:04;;;;;;;87.70;42.50;;;;;;;;;;5072972;28;20051;-81
2022/03/17 13:40:41;;;;;;;85.40;42.05;;;;;;;;;;5064624;28;20767;-80
2022/03/17 13:43:08;;;;;;;96.57;46.45;;;;;;;;;;5060589;28;20102;-80
2022/03/17 13:45:36;;;;;;;99.85;47.38;;;;;;;;;;5076056;28;20094;-81
2022/03/17 13:48:05;;;;;;;97.55;48.42;;;;;;;;;;5069995;28;20124;-81
2022/03/17 13:50:33;;;;;;;95.68;44.97;;;;;;;;;;5073641;28;20045;-80
2022/03/17 13:53:03;;;;;;;94.93;46.60;;;;;;;;;;5077422;28;20071;-81
2022/03/17 13:55:53;;;;;;;96.78;46.88;;;;;;;;;;5080659;28;20044;-81
2022/03/17 13:58:22;;;;;;;100.38;46.85;;;;;;;;;;5054424;28;20727;-80
2022/03/17 14:00:50;;;;;;;102.85;47.90;;;;;;;;;;5078493;28;20063;-80
2022/03/17 14:03:24;;;;;;;98.20;46.90;;;;;;;;;;5070179;28;20048;-80
2022/03/17 14:06:17;;;;;;;99.05;47.28;;;;;;;;;;5080330;28;20088;-80
2022/03/17 14:08:46;;;;;;;100.25;48.05;;;;;;;;;;5078166;28;20049;-79
2022/03/17 14:11:24;;;;;;;98.13;47.63;;;;;;;;;;5074415;28;20107;-79
2022/03/17 14:13:52;;;;;;;100.70;47.90;;;;;;;;;;5080302;28;20099;-79
2022/03/17 14:16:21;;;;;;;97.82;47.63;;;;;;;;;;5062713;28;20126;-80
2022/03/17 14:18:49;;;;;;;99.68;48.33;;;;;;;;;;5085232;28;20056;-79
2022/03/17 14:21:17;;;;;;;102.70;46.72;;;;;;;;;;5075830;28;20147;-82
2022/03/17 14:26:34;;;;;;;100.07;49.60;;;;;;;;;;5073617;28;20047;-79
2022/03/17 14:29:03;;;;;;;101.82;48.55;;;;;;;;;;5080226;28;20123;-78
2022/03/17 14:31:31;;;;;;;108.95;48.45;;;;;;;;;;5077602;28;20048;-79
2022/03/17 14:33:59;;;;;;;109.05;49.78;;;;;;;;;;5073476;28;20045;-80
2022/03/17 14:36:31;;;;;;;107.85;49.60;;;;;;;;;;5074755;28;20075;-79